createdAt,value
2018-04-15T00:02:24.253Z,80.30
2018-04-15T00:04:51.892Z,80.60
2018-04-15T00:07:19.522Z,79.90
2018-04-15T00:09:47.182Z,80.70
2018-04-15T00:12:15.325Z,80.90
2018-04-15T00:14:43.888Z,81.00
2018-04-15T00:17:11.625Z,80.90
2018-04-15T00:19:40.042Z,81.10
2018-04-15T00:22:08.492Z,81.20
2018-04-15T00:24:36.115Z,81.10
2018-04-15T00:27:04.537Z,82.30
2018-04-15T00:29:32.929Z,81.50
2018-04-15T00:32:01.326Z,81.60
2018-04-15T00:34:29.741Z,82.20
2018-04-15T00:36:58.157Z,81.80
2018-04-15T00:39:26.570Z,81.90
2018-04-15T00:41:54.207Z,81.90
2018-04-15T00:44:21.833Z,82.00
2018-04-15T00:46:49.450Z,82.10
2018-04-15T00:49:17.139Z,82.10
2018-04-15T00:51:44.754Z,82.20
2018-04-15T00:54:17.322Z,82.20
2018-04-15T00:56:44.947Z,82.30
2018-04-15T00:59:12.595Z,82.50
2018-04-15T01:01:40.277Z,82.70
2018-04-15T01:04:07.894Z,82.70
2018-04-15T01:06:35.590Z,82.70
2018-04-15T01:09:03.261Z,82.70
2018-04-15T01:11:31.685Z,82.80
2018-04-15T01:13:59.420Z,82.80
2018-04-15T01:16:27.290Z,82.90
2018-04-15T01:18:54.945Z,83.00
2018-04-15T01:21:23.597Z,83.00
2018-04-15T01:23:52.014Z,83.10
2018-04-15T01:26:19.669Z,83.10
2018-04-15T01:28:47.321Z,83.20
2018-04-15T01:31:14.921Z,83.30
2018-04-15T01:33:42.600Z,83.30
2018-04-15T01:36:10.242Z,83.40
2018-04-15T01:38:37.868Z,83.40
2018-04-15T01:41:05.553Z,83.60
2018-04-15T01:43:33.186Z,83.60
2018-04-15T01:46:01.629Z,83.40
2018-04-15T01:48:29.268Z,83.40
2018-04-15T01:50:56.915Z,83.40
2018-04-15T01:53:24.578Z,83.60
2018-04-15T01:55:52.174Z,83.60
2018-04-15T01:58:19.797Z,83.80
2018-04-15T02:00:47.395Z,83.80
2018-04-15T02:03:15.046Z,83.90
2018-04-15T02:05:42.677Z,84.10
2018-04-15T02:08:11.094Z,84.20
2018-04-15T02:10:39.533Z,84.30
2018-04-15T02:13:07.209Z,84.20
2018-04-15T02:15:34.869Z,84.30
2018-04-15T02:18:03.389Z,84.60
2018-04-15T02:20:31.879Z,84.70
2018-04-15T02:23:00.365Z,84.80
2018-04-15T02:25:28.010Z,84.80
2018-04-15T02:27:55.613Z,84.80
2018-04-15T02:30:23.280Z,85.00
2018-04-15T02:32:50.898Z,85.10
2018-04-15T02:35:18.541Z,85.10
2018-04-15T02:37:46.161Z,85.10
2018-04-15T02:40:13.841Z,85.20
2018-04-15T02:42:41.539Z,85.40
2018-04-15T02:45:09.176Z,85.40
2018-04-15T02:47:36.894Z,85.40
2018-04-15T02:50:04.646Z,85.40
2018-04-15T02:52:33.081Z,85.40
2018-04-15T02:55:00.753Z,85.50
2018-04-15T02:57:28.409Z,85.50
2018-04-15T02:59:56.841Z,85.60
2018-04-15T03:02:24.476Z,85.60
2018-04-15T03:04:52.157Z,85.60
2018-04-15T03:07:19.778Z,85.60
2018-04-15T03:09:47.471Z,85.70
2018-04-15T03:12:15.217Z,85.90
2018-04-15T03:14:42.840Z,85.90
2018-04-15T03:17:10.479Z,85.90
2018-04-15T03:19:38.120Z,86.80
2018-04-15T03:22:06.517Z,86.00
2018-04-15T03:24:34.916Z,86.10
2018-04-15T03:27:03.333Z,86.20
2018-04-15T03:29:31.778Z,86.20
2018-04-15T03:31:59.399Z,86.20
2018-04-15T03:34:27.050Z,86.30
2018-04-15T03:36:54.669Z,86.50
2018-04-15T03:39:22.342Z,86.60
2018-04-15T03:41:49.973Z,86.60
2018-04-15T03:44:18.436Z,86.50
2018-04-15T03:46:46.117Z,86.50
2018-04-15T03:49:13.746Z,86.50
2018-04-15T03:51:41.426Z,86.50
2018-04-15T03:54:09.190Z,86.80
2018-04-15T03:56:36.928Z,86.90
2018-04-15T03:59:05.320Z,87.00
2018-04-15T04:01:32.949Z,87.00
2018-04-15T04:04:00.569Z,87.00
2018-04-15T04:06:43.064Z,86.90
2018-04-15T04:09:10.690Z,86.90
2018-04-15T04:11:38.277Z,87.10
2018-04-15T04:14:05.934Z,87.10
2018-04-15T04:16:33.637Z,87.20
2018-04-15T04:19:13.099Z,87.30
2018-04-15T04:21:53.681Z,87.40
2018-04-15T04:24:33.322Z,87.50
2018-04-15T04:27:00.978Z,87.60
2018-04-15T04:29:28.657Z,87.60
2018-04-15T04:31:56.250Z,87.60
2018-04-15T04:34:23.944Z,87.70
2018-04-15T04:36:51.602Z,87.70
2018-04-15T04:39:34.414Z,87.70
2018-04-15T04:42:02.834Z,87.70
2018-04-15T04:44:30.478Z,87.70
2018-04-15T04:46:58.224Z,87.60
2018-04-15T04:49:26.690Z,87.70
2018-04-15T04:51:54.362Z,87.70
2018-04-15T04:54:22.004Z,87.70
2018-04-15T04:56:49.673Z,87.80
2018-04-15T04:59:18.057Z,87.90
2018-04-15T05:01:45.714Z,87.80
2018-04-15T05:04:14.169Z,88.20
2018-04-15T05:06:42.579Z,88.00
2018-04-15T05:09:10.997Z,88.00
2018-04-15T05:11:38.624Z,88.00
2018-04-15T05:14:07.537Z,88.10
2018-04-15T05:16:35.196Z,88.10
2018-04-15T05:19:03.703Z,88.30
2018-04-15T05:21:31.359Z,89.00
2018-04-15T05:23:59.797Z,88.20
2018-04-15T05:26:27.451Z,88.20
2018-04-15T05:28:55.866Z,88.20
2018-04-15T05:31:23.528Z,88.10
2018-04-15T05:33:51.156Z,88.20
2018-04-15T05:36:18.857Z,88.10
2018-04-15T05:38:46.610Z,88.10
2018-04-15T05:41:14.257Z,88.00
2018-04-15T05:43:41.887Z,87.70
2018-04-15T05:46:10.414Z,88.00
2018-04-15T05:48:38.051Z,87.80
2018-04-15T05:51:05.734Z,87.70
2018-04-15T05:53:34.149Z,87.60
2018-04-15T05:56:01.802Z,87.50
2018-04-15T05:58:29.456Z,87.60
2018-04-15T06:00:57.854Z,87.20
2018-04-15T06:03:26.285Z,87.10
2018-04-15T06:05:53.922Z,87.10
2018-04-15T06:08:21.599Z,87.10
2018-04-15T06:10:50.006Z,86.90
2018-04-15T06:13:17.654Z,86.80
2018-04-15T06:15:45.334Z,86.90
2018-04-15T06:18:12.974Z,86.80
2018-04-15T06:20:40.655Z,86.70
2018-04-15T06:23:09.359Z,86.70
2018-04-15T06:25:37.882Z,86.70
2018-04-15T06:31:23.513Z,86.60
2018-04-15T06:33:51.905Z,86.50
2018-04-15T06:36:20.327Z,86.30
2018-04-15T06:38:48.742Z,86.00
2018-04-15T06:41:16.365Z,86.00
2018-04-15T06:43:44.010Z,85.70
2018-04-15T06:46:12.914Z,85.60
2018-04-15T06:48:41.359Z,85.20
2018-04-15T06:51:09.045Z,85.20
2018-04-15T06:53:36.729Z,85.00
2018-04-15T06:56:04.371Z,84.80
2018-04-15T06:58:32.101Z,84.50
2018-04-15T07:00:59.745Z,84.30
2018-04-15T07:03:27.337Z,84.00
2018-04-15T07:05:55.028Z,83.70
2018-04-15T07:08:22.636Z,82.40
2018-04-15T07:10:51.504Z,81.90
2018-04-15T07:13:19.137Z,81.70
2018-04-15T07:15:47.590Z,81.00
2018-04-15T07:18:15.285Z,81.00
2018-04-15T07:20:42.898Z,80.30
2018-04-15T07:23:10.561Z,79.10
2018-04-15T07:25:38.218Z,78.80
2018-04-15T07:28:05.893Z,77.90
2018-04-15T07:30:33.494Z,77.40
2018-04-15T07:33:01.137Z,76.60
2018-04-15T07:35:28.835Z,75.90
2018-04-15T07:37:57.234Z,74.50
2018-04-15T07:40:24.941Z,74.50
2018-04-15T07:42:53.329Z,73.70
2018-04-15T07:45:20.997Z,73.70
2018-04-15T07:47:48.657Z,73.40
2018-04-15T07:50:16.314Z,73.40
2018-04-15T07:52:43.981Z,73.00
2018-04-15T07:55:12.384Z,72.80
2018-04-15T07:57:40.820Z,72.20
2018-04-15T08:14:41.853Z,71.60
2018-04-15T08:28:50.825Z,71.70
2018-04-15T08:31:18.482Z,71.40
2018-04-15T08:33:46.160Z,71.10
2018-04-15T08:36:13.789Z,71.00
2018-04-15T08:38:41.452Z,70.40
2018-04-15T08:41:09.089Z,69.90
2018-04-15T08:43:36.885Z,69.10
2018-04-15T08:46:04.550Z,67.60
2018-04-15T08:48:32.980Z,65.90
2018-04-15T08:51:00.916Z,65.10
2018-04-15T08:53:28.861Z,63.50
2018-04-15T08:55:56.522Z,62.50
2018-04-15T08:58:24.970Z,60.70
2018-04-15T09:00:52.641Z,60.60
2018-04-15T09:03:20.529Z,60.00
2018-04-15T09:05:48.206Z,59.50
2018-04-15T09:08:16.618Z,58.40
2018-04-15T09:10:44.284Z,58.40
2018-04-15T09:13:11.902Z,57.90
2018-04-15T09:16:01.156Z,58.10
2018-04-15T09:18:29.488Z,57.10
2018-04-15T09:20:57.513Z,56.70
2018-04-15T09:23:25.742Z,56.50
2018-04-15T09:25:53.446Z,55.80
2018-04-15T09:28:26.626Z,55.40
2018-04-15T09:30:59.985Z,55.20
2018-04-15T09:33:27.924Z,54.50
2018-04-15T09:35:56.653Z,54.50
2018-04-15T09:38:25.364Z,54.60
2018-04-15T09:40:53.243Z,54.60
2018-04-15T09:43:21.185Z,54.90
2018-04-15T09:45:49.113Z,54.90
2018-04-15T09:48:16.966Z,55.00
2018-04-15T09:50:44.923Z,55.10
2018-04-15T09:53:12.827Z,55.10
2018-04-15T09:55:40.749Z,55.40
2018-04-15T09:58:08.868Z,55.80
2018-04-15T10:00:36.865Z,55.90
2018-04-15T10:03:05.586Z,56.30
2018-04-15T10:05:33.477Z,56.30
2018-04-15T10:08:01.454Z,56.60
2018-04-15T10:10:29.329Z,56.40
2018-04-15T10:13:18.208Z,55.40
2018-04-15T10:15:46.206Z,55.30
2018-04-15T10:18:15.039Z,54.80
2018-04-15T10:20:43.014Z,54.80
2018-04-15T10:23:10.962Z,55.10
2018-04-15T10:25:39.674Z,55.00
2018-04-15T10:28:07.555Z,54.90
2018-04-15T10:30:35.522Z,54.80
2018-04-15T10:33:03.430Z,54.40
2018-04-15T10:35:32.136Z,54.20
2018-04-15T10:38:00.033Z,54.20
2018-04-15T10:40:27.975Z,54.20
2018-04-15T10:42:55.883Z,54.10
2018-04-15T10:45:25.207Z,53.60
2018-04-15T10:47:53.469Z,53.60
2018-04-15T10:50:21.367Z,53.60
2018-04-15T10:52:49.306Z,53.60
2018-04-15T10:55:17.157Z,53.80
2018-04-15T10:57:45.147Z,53.80
2018-04-15T11:00:13.059Z,53.40
2018-04-15T11:02:40.981Z,52.50
2018-04-15T11:05:08.881Z,51.90
2018-04-15T11:07:36.784Z,51.80
2018-04-15T11:10:04.629Z,52.00
2018-04-15T11:12:32.537Z,52.10
2018-04-15T11:15:00.513Z,52.20
2018-04-15T11:17:28.513Z,51.70
2018-04-15T11:19:56.472Z,51.70
2018-04-15T11:22:25.273Z,52.00
2018-04-15T11:24:54.608Z,51.90
2018-04-15T11:27:22.486Z,51.80
2018-04-15T11:38:43.652Z,50.60
2018-04-15T11:41:12.495Z,50.60
2018-04-15T11:43:40.504Z,50.40
2018-04-15T11:46:09.080Z,50.20
2018-04-15T11:48:37.005Z,49.70
2018-04-15T11:51:05.677Z,49.50
2018-04-15T11:53:34.384Z,48.90
2018-04-15T11:56:02.277Z,48.90
2018-04-15T11:58:31.045Z,48.20
2018-04-15T12:00:58.983Z,47.80
2018-04-15T12:03:26.945Z,47.90
2018-04-15T12:05:55.243Z,47.90
2018-04-15T12:08:23.822Z,47.70
2018-04-15T12:10:51.846Z,47.40
2018-04-15T12:13:19.803Z,46.90
2018-04-15T12:15:47.828Z,46.30
2018-04-15T12:18:16.631Z,45.50
2018-04-15T12:20:44.545Z,45.40
2018-04-15T12:23:13.255Z,44.80
2018-04-15T12:25:41.927Z,44.10
2018-04-15T12:28:10.639Z,43.90
2018-04-15T12:30:43.939Z,43.80
2018-04-15T12:33:11.953Z,43.40
2018-04-15T12:35:39.998Z,42.40
2018-04-15T12:38:08.000Z,42.00
2018-04-15T12:40:36.715Z,42.00
2018-04-15T12:43:04.607Z,42.00
2018-04-15T12:45:33.258Z,41.30
2018-04-15T12:48:01.912Z,40.90
2018-04-15T12:50:29.821Z,40.80
2018-04-15T12:52:57.723Z,40.00
2018-04-15T12:55:26.084Z,40.10
2018-04-15T12:57:54.956Z,40.90
2018-04-15T13:00:22.840Z,40.00
2018-04-15T13:02:50.883Z,40.00
2018-04-15T13:05:18.778Z,40.10
2018-04-15T13:07:47.613Z,40.40
2018-04-15T13:10:16.045Z,40.60
2018-04-15T13:12:44.061Z,41.00
2018-04-15T13:21:12.858Z,41.50
2018-04-15T13:23:41.658Z,40.70
2018-04-15T13:26:09.675Z,40.50
2018-04-15T13:28:46.116Z,40.20
2018-04-15T13:31:14.163Z,40.30
2018-04-15T13:33:42.183Z,40.60
2018-04-15T13:36:10.189Z,40.80
2018-04-15T13:38:38.229Z,40.70
2018-04-15T13:41:07.167Z,41.30
2018-04-15T13:43:39.670Z,41.80
2018-04-15T13:46:07.680Z,41.80
2018-04-15T13:48:35.735Z,41.90
2018-04-15T13:51:03.785Z,41.90
2018-04-15T13:53:31.872Z,42.20
2018-04-15T13:56:00.671Z,42.30
2018-04-15T13:58:28.613Z,42.30
2018-04-15T14:00:56.691Z,42.30
2018-04-15T14:03:24.670Z,42.10
2018-04-15T14:05:54.687Z,41.70
2018-04-15T14:08:23.645Z,40.80
2018-04-15T14:10:51.781Z,41.10
2018-04-15T14:13:20.639Z,41.40
2018-04-15T14:15:48.655Z,41.40
2018-04-15T14:18:16.780Z,41.90
2018-04-15T14:20:44.842Z,42.30
2018-04-15T14:23:33.344Z,42.70
2018-04-15T14:26:03.308Z,43.10
2018-04-15T14:28:31.959Z,43.10
2018-04-15T14:31:04.407Z,43.90
2018-04-15T14:33:33.399Z,44.20
2018-04-15T14:36:07.133Z,44.20
2018-04-15T14:38:35.100Z,44.20
2018-04-15T14:41:03.702Z,44.30
2018-04-15T14:43:32.134Z,44.30
2018-04-15T14:46:00.846Z,44.80
2018-04-15T14:48:28.728Z,44.80
2018-04-15T14:50:56.668Z,44.90
2018-04-15T14:53:24.551Z,44.90
2018-04-15T14:55:52.451Z,45.00
2018-04-15T14:58:20.384Z,45.10
2018-04-15T15:00:48.233Z,44.80
2018-04-15T15:03:16.202Z,44.80
2018-04-15T15:05:44.150Z,45.00
2018-04-15T15:08:12.839Z,44.90
2018-04-15T15:10:41.716Z,44.60
2018-04-15T15:13:09.665Z,44.60
2018-04-15T15:15:37.595Z,44.40
2018-04-15T15:18:05.488Z,44.40
2018-04-15T15:20:33.327Z,44.10
2018-04-15T15:23:01.593Z,44.10
2018-04-15T15:25:30.294Z,44.40
2018-04-15T15:27:58.243Z,44.30
2018-04-15T15:33:26.327Z,44.40
2018-04-15T15:35:54.285Z,44.40
2018-04-15T15:38:22.171Z,44.50
2018-04-15T15:40:50.317Z,44.60
2018-04-15T15:43:18.326Z,44.80
2018-04-15T15:45:47.055Z,45.10
2018-04-15T15:48:15.014Z,45.00
2018-04-15T15:50:42.905Z,45.50
2018-04-15T15:53:11.012Z,45.60
2018-04-15T15:55:38.874Z,45.40
2018-04-15T15:58:06.868Z,45.60
2018-04-15T16:00:34.769Z,45.70
2018-04-15T16:03:03.901Z,45.90
2018-04-15T16:05:32.248Z,45.80
2018-04-15T16:08:00.530Z,46.40
2018-04-15T16:10:28.454Z,46.50
2018-04-15T16:18:54.728Z,48.60
2018-04-15T16:21:40.471Z,48.50
2018-04-15T16:24:08.755Z,49.30
2018-04-15T16:26:38.312Z,49.90
2018-04-15T16:29:06.240Z,50.40
2018-04-15T16:31:34.147Z,50.30
2018-04-15T16:34:03.855Z,50.70
2018-04-15T16:36:32.695Z,51.10
2018-04-15T16:39:00.544Z,51.10
2018-04-15T16:41:28.503Z,51.90
2018-04-15T16:43:56.425Z,52.30
2018-04-15T16:46:27.751Z,52.90
2018-04-15T16:48:56.593Z,53.60
2018-04-15T16:51:24.497Z,54.00
2018-04-15T16:53:53.681Z,54.60
2018-04-15T16:56:22.602Z,54.90
2018-04-15T16:58:51.409Z,55.20
2018-04-15T17:01:19.504Z,55.40
2018-04-15T17:03:48.242Z,56.10
2018-04-15T17:06:16.113Z,56.10
2018-04-15T17:08:44.844Z,55.90
2018-04-15T17:11:14.593Z,55.80
2018-04-15T17:14:03.473Z,55.70
2018-04-15T17:16:31.387Z,56.00
2018-04-15T17:18:59.270Z,56.50
2018-04-15T17:21:29.696Z,57.10
2018-04-15T17:23:57.600Z,57.20
2018-04-15T17:26:25.523Z,57.00
2018-04-15T17:28:56.064Z,56.80
2018-04-15T17:31:24.528Z,57.20
2018-04-15T17:33:52.780Z,57.80
2018-04-15T17:36:21.725Z,58.30
2018-04-15T17:38:51.734Z,59.30
2018-04-15T17:41:19.626Z,59.20
2018-04-15T17:43:48.367Z,59.20
2018-04-15T17:46:16.950Z,59.30
2018-04-15T17:48:44.847Z,59.60
2018-04-15T17:51:12.796Z,59.70
2018-04-15T17:53:40.761Z,60.00
2018-04-15T17:56:08.704Z,60.30
2018-04-15T17:58:37.619Z,60.60
2018-04-15T18:01:06.731Z,61.20
2018-04-15T18:03:54.298Z,61.90
2018-04-15T18:06:22.214Z,61.90
2018-04-15T18:08:50.142Z,62.30
2018-04-15T18:11:18.860Z,62.20
2018-04-15T18:13:48.353Z,62.10
2018-04-15T18:16:17.026Z,62.30
2018-04-15T18:18:44.942Z,62.20
2018-04-15T18:21:12.841Z,62.90
2018-04-15T18:23:40.740Z,63.10
2018-04-15T18:26:10.139Z,63.30
2018-04-15T18:28:38.157Z,63.60
2018-04-15T18:31:06.378Z,64.00
2018-04-15T18:33:34.547Z,64.50
2018-04-15T18:36:02.612Z,64.90
2018-04-15T18:38:30.934Z,65.20
2018-04-15T18:40:59.625Z,65.80
2018-04-15T18:43:30.705Z,65.80
2018-04-15T18:45:59.875Z,65.90
2018-04-15T18:48:27.711Z,65.80
2018-04-15T18:50:55.599Z,66.10
2018-04-15T18:53:23.610Z,66.30
2018-04-15T18:55:51.409Z,67.50
2018-04-15T18:58:19.259Z,67.00
2018-04-15T19:00:47.047Z,67.00
2018-04-15T19:03:14.865Z,67.40
2018-04-15T19:05:42.717Z,67.70
2018-04-15T19:08:10.500Z,68.40
2018-04-15T19:10:44.189Z,67.70
2018-04-15T19:13:11.789Z,67.70
2018-04-15T19:15:39.389Z,67.60
2018-04-15T19:18:07.722Z,67.60
2018-04-15T19:20:35.324Z,67.50
2018-04-15T19:23:02.933Z,67.40
2018-04-15T19:25:30.508Z,67.30
2018-04-15T19:27:58.113Z,67.50
2018-04-15T19:30:25.707Z,67.70
2018-04-15T19:32:54.178Z,67.80
2018-04-15T19:35:41.992Z,67.70
2018-04-15T19:38:10.303Z,68.00
2018-04-15T19:40:38.358Z,67.90
2018-04-15T19:43:06.649Z,67.70
2018-04-15T19:45:35.485Z,67.00
2018-04-15T19:48:03.369Z,66.90
2018-04-15T19:50:31.155Z,66.60
2018-04-15T19:52:59.176Z,66.90
2018-04-15T19:55:27.773Z,67.00
2018-04-15T19:57:55.621Z,67.10
2018-04-15T20:00:23.301Z,67.10
2018-04-15T20:02:51.099Z,66.80
2018-04-15T20:05:19.794Z,67.40
2018-04-15T20:07:47.496Z,67.20
2018-04-15T20:10:15.144Z,67.40
2018-04-15T20:12:42.970Z,67.60
2018-04-15T20:15:10.839Z,67.40
2018-04-15T20:17:38.500Z,67.00
2018-04-15T20:20:06.353Z,66.50
2018-04-15T20:22:34.177Z,66.40
2018-04-15T20:25:02.757Z,66.90
2018-04-15T20:27:30.530Z,66.90
2018-04-15T20:29:59.640Z,67.10
2018-04-15T20:32:27.460Z,67.20
2018-04-15T20:34:55.223Z,66.80
2018-04-15T20:37:23.260Z,66.50
2018-04-15T20:39:51.784Z,66.40
2018-04-15T20:42:20.221Z,66.30
2018-04-15T20:44:48.097Z,66.50
2018-04-15T20:47:16.717Z,66.80
2018-04-15T20:49:44.410Z,66.80
2018-04-15T20:52:12.025Z,66.90
2018-04-15T20:54:39.714Z,67.50
2018-04-15T20:57:07.425Z,67.70
2018-04-15T20:59:35.075Z,68.00
2018-04-15T21:02:02.789Z,68.10
2018-04-15T21:04:30.447Z,68.20
2018-04-15T21:06:58.239Z,68.40
2018-04-15T21:09:25.940Z,68.30
2018-04-15T21:11:53.594Z,68.60
2018-04-15T21:14:21.410Z,68.90
2018-04-15T21:16:49.063Z,69.30
2018-04-15T21:19:16.770Z,69.60
2018-04-15T21:21:44.496Z,70.00
2018-04-15T21:24:12.178Z,70.40
2018-04-15T21:26:39.801Z,70.90
2018-04-15T21:29:08.219Z,71.60
2018-04-15T21:31:35.850Z,71.50
2018-04-15T21:34:03.531Z,71.60
2018-04-15T21:36:31.157Z,72.30
2018-04-15T21:38:59.594Z,73.20
2018-04-15T21:41:27.374Z,73.10
2018-04-15T21:43:55.810Z,73.90
2018-04-15T21:46:23.481Z,73.90
2018-04-15T21:48:51.133Z,74.30
2018-04-15T21:51:19.565Z,75.00
2018-04-15T21:53:47.283Z,75.00
2018-04-15T21:56:14.928Z,75.30
2018-04-15T21:58:43.377Z,76.20
2018-04-15T22:01:11.064Z,76.20
2018-04-15T22:03:38.737Z,76.70
2018-04-15T22:06:06.449Z,76.80
2018-04-15T22:08:34.137Z,77.20
2018-04-15T22:11:01.852Z,77.50
2018-04-15T22:13:29.481Z,77.80
2018-04-15T22:15:57.175Z,78.00
2018-04-15T22:18:24.829Z,78.00
2018-04-15T22:20:52.529Z,78.10
2018-04-15T22:23:20.987Z,78.30
2018-04-15T22:25:49.007Z,78.30
2018-04-15T22:28:16.686Z,78.60
2018-04-15T22:30:44.337Z,78.70
2018-04-15T22:33:12.021Z,78.90
2018-04-15T22:35:39.809Z,79.10
2018-04-15T22:38:08.245Z,79.60
2018-04-15T22:40:35.864Z,79.60
2018-04-15T22:43:03.536Z,79.90
2018-04-15T22:45:31.230Z,80.10
2018-04-15T22:48:04.830Z,80.30
2018-04-15T22:50:37.248Z,80.30
2018-04-15T22:53:04.969Z,80.40
2018-04-15T22:55:32.639Z,80.60
2018-04-15T22:58:00.289Z,80.80
2018-04-15T23:00:27.966Z,81.00
2018-04-15T23:02:55.583Z,81.10
2018-04-15T23:05:23.244Z,81.40
2018-04-15T23:07:50.855Z,81.70
2018-04-15T23:10:18.495Z,81.80
2018-04-15T23:12:46.905Z,81.70
2018-04-15T23:15:15.374Z,81.70
2018-04-15T23:17:43.021Z,81.70
2018-04-15T23:20:10.739Z,82.20
2018-04-15T23:22:38.409Z,82.30
2018-04-15T23:25:06.054Z,82.40
2018-04-15T23:27:34.479Z,82.50
2018-04-15T23:30:02.102Z,82.50
2018-04-15T23:32:29.774Z,82.70
2018-04-15T23:34:57.423Z,83.00
2018-04-15T23:37:25.081Z,83.90
2018-04-15T23:39:52.760Z,83.10
2018-04-15T23:42:20.441Z,83.30
2018-04-15T23:44:48.066Z,83.50
2018-04-15T23:47:16.466Z,83.60
2018-04-15T23:49:44.863Z,83.30
2018-04-15T23:52:13.230Z,83.70
2018-04-15T23:54:40.910Z,83.00
2018-04-15T23:57:08.640Z,82.80
2018-04-15T23:59:37.030Z,83.40
